sensor_id;sensor_type;location;lat;lon;timestamp;pressure;altitude;pressure_sealevel;temperature
15607;BMP180;7865;50.918;4.510;2023-04-03T00:02:59;102305.00;;;0.60
15607;BMP180;7865;50.918;4.510;2023-04-03T00:08:02;102306.00;;;0.50
15607;BMP180;7865;50.918;4.510;2023-04-03T00:13:05;102303.00;;;0.50
15607;BMP180;7865;50.918;4.510;2023-04-03T00:18:07;102310.00;;;0.40
15607;BMP180;7865;50.918;4.510;2023-04-03T00:23:10;102305.00;;;0.40
15607;BMP180;7865;50.918;4.510;2023-04-03T00:28:12;102312.00;;;0.30
15607;BMP180;7865;50.918;4.510;2023-04-03T00:33:14;102307.00;;;0.40
15607;BMP180;7865;50.918;4.510;2023-04-03T00:38:17;102322.00;;;0.40
15607;BMP180;7865;50.918;4.510;2023-04-03T00:43:24;102320.00;;;0.50
15607;BMP180;7865;50.918;4.510;2023-04-03T00:48:37;102320.00;;;0.50
15607;BMP180;7865;50.918;4.510;2023-04-03T00:53:44;102319.00;;;0.50
15607;BMP180;7865;50.918;4.510;2023-04-03T00:59:04;102320.00;;;0.50
15607;BMP180;7865;50.918;4.510;2023-04-03T01:09:33;102319.00;;;0.40
15607;BMP180;7865;50.918;4.510;2023-04-03T01:14:35;102320.00;;;0.40
15607;BMP180;7865;50.918;4.510;2023-04-03T01:19:40;102323.00;;;0.40
15607;BMP180;7865;50.918;4.510;2023-04-03T01:24:47;102327.00;;;0.40
15607;BMP180;7865;50.918;4.510;2023-04-03T01:29:50;102335.00;;;0.40
15607;BMP180;7865;50.918;4.510;2023-04-03T01:34:52;102337.00;;;0.40
15607;BMP180;7865;50.918;4.510;2023-04-03T01:39:55;102342.00;;;0.40
15607;BMP180;7865;50.918;4.510;2023-04-03T01:44:57;102342.00;;;0.30
15607;BMP180;7865;50.918;4.510;2023-04-03T01:49:59;102348.00;;;0.20
15607;BMP180;7865;50.918;4.510;2023-04-03T01:55:04;102347.00;;;0.20
15607;BMP180;7865;50.918;4.510;2023-04-03T02:00:06;102338.00;;;0.10
15607;BMP180;7865;50.918;4.510;2023-04-03T02:05:13;102343.00;;;0.20
15607;BMP180;7865;50.918;4.510;2023-04-03T02:10:16;102349.00;;;0.20
15607;BMP180;7865;50.918;4.510;2023-04-03T02:15:19;102349.00;;;0.10
15607;BMP180;7865;50.918;4.510;2023-04-03T02:20:21;102343.00;;;0.10
15607;BMP180;7865;50.918;4.510;2023-04-03T02:25:24;102349.00;;;0.00
15607;BMP180;7865;50.918;4.510;2023-04-03T02:30:26;102355.00;;;0.00
15607;BMP180;7865;50.918;4.510;2023-04-03T02:35:29;102362.00;;;-0.10
15607;BMP180;7865;50.918;4.510;2023-04-03T02:40:33;102365.00;;;-0.10
15607;BMP180;7865;50.918;4.510;2023-04-03T02:45:35;102367.00;;;-0.20
15607;BMP180;7865;50.918;4.510;2023-04-03T02:50:38;102368.00;;;-0.20
15607;BMP180;7865;50.918;4.510;2023-04-03T02:55:40;102376.00;;;-0.30
15607;BMP180;7865;50.918;4.510;2023-04-03T03:00:42;102368.00;;;-0.30
15607;BMP180;7865;50.918;4.510;2023-04-03T03:05:44;102371.00;;;-0.30
15607;BMP180;7865;50.918;4.510;2023-04-03T03:10:46;102369.00;;;-0.30
15607;BMP180;7865;50.918;4.510;2023-04-03T03:15:49;102376.00;;;-0.40
15607;BMP180;7865;50.918;4.510;2023-04-03T03:20:53;102378.00;;;-0.40
15607;BMP180;7865;50.918;4.510;2023-04-03T03:25:57;102373.00;;;-0.50
15607;BMP180;7865;50.918;4.510;2023-04-03T03:31:00;102388.00;;;-0.50
15607;BMP180;7865;50.918;4.510;2023-04-03T03:36:03;102383.00;;;-0.60
15607;BMP180;7865;50.918;4.510;2023-04-03T03:41:05;102385.00;;;-0.70
15607;BMP180;7865;50.918;4.510;2023-04-03T03:46:09;102398.00;;;-0.70
15607;BMP180;7865;50.918;4.510;2023-04-03T03:51:11;102392.00;;;-0.80
15607;BMP180;7865;50.918;4.510;2023-04-03T03:56:14;102397.00;;;-0.90
15607;BMP180;7865;50.918;4.510;2023-04-03T04:01:17;102407.00;;;-0.90
15607;BMP180;7865;50.918;4.510;2023-04-03T04:06:22;102408.00;;;-0.90
15607;BMP180;7865;50.918;4.510;2023-04-03T04:11:26;102409.00;;;-1.00
15607;BMP180;7865;50.918;4.510;2023-04-03T04:16:30;102414.00;;;-1.00
15607;BMP180;7865;50.918;4.510;2023-04-03T04:21:37;102411.00;;;-1.10
15607;BMP180;7865;50.918;4.510;2023-04-03T04:26:40;102418.00;;;-1.10
15607;BMP180;7865;50.918;4.510;2023-04-03T04:31:45;102412.00;;;-1.10
15607;BMP180;7865;50.918;4.510;2023-04-03T04:36:47;102415.00;;;-1.10
15607;BMP180;7865;50.918;4.510;2023-04-03T04:41:50;102410.00;;;-1.10
15607;BMP180;7865;50.918;4.510;2023-04-03T04:46:53;102410.00;;;-1.20
15607;BMP180;7865;50.918;4.510;2023-04-03T04:51:55;102416.00;;;-1.20
15607;BMP180;7865;50.918;4.510;2023-04-03T04:57:02;102417.00;;;-1.10
15607;BMP180;7865;50.918;4.510;2023-04-03T05:02:05;102422.00;;;-1.10
15607;BMP180;7865;50.918;4.510;2023-04-03T05:07:08;102413.00;;;-1.10
15607;BMP180;7865;50.918;4.510;2023-04-03T05:12:12;102408.00;;;-1.00
15607;BMP180;7865;50.918;4.510;2023-04-03T05:17:20;102418.00;;;-1.00
15607;BMP180;7865;50.918;4.510;2023-04-03T05:22:26;102421.00;;;-0.90
15607;BMP180;7865;50.918;4.510;2023-04-03T05:27:33;102411.00;;;-0.80
15607;BMP180;7865;50.918;4.510;2023-04-03T05:32:36;102423.00;;;-0.80
15607;BMP180;7865;50.918;4.510;2023-04-03T05:37:48;102427.00;;;-0.60
15607;BMP180;7865;50.918;4.510;2023-04-03T05:42:51;102431.00;;;-0.50
15607;BMP180;7865;50.918;4.510;2023-04-03T05:47:57;102428.00;;;-0.30
15607;BMP180;7865;50.918;4.510;2023-04-03T05:53:02;102434.00;;;-0.10
15607;BMP180;7865;50.918;4.510;2023-04-03T05:58:07;102435.00;;;0.20
15607;BMP180;7865;50.918;4.510;2023-04-03T06:03:12;102434.00;;;0.40
15607;BMP180;7865;50.918;4.510;2023-04-03T06:08:15;102437.00;;;0.70
15607;BMP180;7865;50.918;4.510;2023-04-03T06:13:17;102434.00;;;1.00
15607;BMP180;7865;50.918;4.510;2023-04-03T06:18:19;102430.00;;;1.30
15607;BMP180;7865;50.918;4.510;2023-04-03T06:23:21;102442.00;;;1.60
15607;BMP180;7865;50.918;4.510;2023-04-03T06:28:24;102443.00;;;1.90
15607;BMP180;7865;50.918;4.510;2023-04-03T06:33:28;102458.00;;;2.30
15607;BMP180;7865;50.918;4.510;2023-04-03T06:38:31;102451.00;;;2.90
15607;BMP180;7865;50.918;4.510;2023-04-03T06:43:33;102454.00;;;3.40
15607;BMP180;7865;50.918;4.510;2023-04-03T06:48:35;102463.00;;;3.90
15607;BMP180;7865;50.918;4.510;2023-04-03T06:53:37;102471.00;;;4.20
15607;BMP180;7865;50.918;4.510;2023-04-03T06:58:40;102475.00;;;4.60
15607;BMP180;7865;50.918;4.510;2023-04-03T07:03:42;102463.00;;;4.80
15607;BMP180;7865;50.918;4.510;2023-04-03T07:08:45;102470.00;;;5.00
15607;BMP180;7865;50.918;4.510;2023-04-03T07:13:47;102469.00;;;5.30
15607;BMP180;7865;50.918;4.510;2023-04-03T07:18:50;102477.00;;;5.60
15607;BMP180;7865;50.918;4.510;2023-04-03T07:23:53;102485.00;;;5.90
15607;BMP180;7865;50.918;4.510;2023-04-03T07:28:55;102486.00;;;6.10
15607;BMP180;7865;50.918;4.510;2023-04-03T07:33:57;102487.00;;;6.20
15607;BMP180;7865;50.918;4.510;2023-04-03T07:38:59;102496.00;;;6.30
15607;BMP180;7865;50.918;4.510;2023-04-03T07:44:01;102497.00;;;6.40
15607;BMP180;7865;50.918;4.510;2023-04-03T07:49:04;102510.00;;;6.50
15607;BMP180;7865;50.918;4.510;2023-04-03T07:54:06;102503.00;;;6.60
15607;BMP180;7865;50.918;4.510;2023-04-03T07:59:09;102514.00;;;6.90
15607;BMP180;7865;50.918;4.510;2023-04-03T08:04:12;102513.00;;;7.20
15607;BMP180;7865;50.918;4.510;2023-04-03T08:09:15;102519.00;;;7.50
15607;BMP180;7865;50.918;4.510;2023-04-03T08:14:17;102520.00;;;7.70
15607;BMP180;7865;50.918;4.510;2023-04-03T08:19:20;102519.00;;;8.20
15607;BMP180;7865;50.918;4.510;2023-04-03T08:24:27;102522.00;;;8.70
15607;BMP180;7865;50.918;4.510;2023-04-03T08:29:29;102529.00;;;9.00
15607;BMP180;7865;50.918;4.510;2023-04-03T08:34:34;102525.00;;;9.20
15607;BMP180;7865;50.918;4.510;2023-04-03T08:39:38;102538.00;;;9.60
15607;BMP180;7865;50.918;4.510;2023-04-03T08:45:37;102534.00;;;10.10
15607;BMP180;7865;50.918;4.510;2023-04-03T08:50:25;102537.00;;;10.40
15607;BMP180;7865;50.918;4.510;2023-04-03T08:55:37;102533.00;;;10.80
15607;BMP180;7865;50.918;4.510;2023-04-03T09:00:51;102529.00;;;11.10
15607;BMP180;7865;50.918;4.510;2023-04-03T09:21:51;102522.00;;;12.10
15607;BMP180;7865;50.918;4.510;2023-04-03T09:27:01;102533.00;;;12.30
15607;BMP180;7865;50.918;4.510;2023-04-03T09:32:32;102530.00;;;12.30
15607;BMP180;7865;50.918;4.510;2023-04-03T09:37:41;102528.00;;;12.30
15607;BMP180;7865;50.918;4.510;2023-04-03T09:42:44;102511.00;;;12.60
15607;BMP180;7865;50.918;4.510;2023-04-03T09:53:36;102506.00;;;13.40
15607;BMP180;7865;50.918;4.510;2023-04-03T09:58:40;102501.00;;;13.50
15607;BMP180;7865;50.918;4.510;2023-04-03T10:04:12;102491.00;;;13.50
15607;BMP180;7865;50.918;4.510;2023-04-03T10:14:24;102486.00;;;13.80
15607;BMP180;7865;50.918;4.510;2023-04-03T10:46:44;102464.00;;;15.00
15607;BMP180;7865;50.918;4.510;2023-04-03T10:51:59;102453.00;;;15.10
15607;BMP180;7865;50.918;4.510;2023-04-03T10:57:08;102452.00;;;15.10
15607;BMP180;7865;50.918;4.510;2023-04-03T11:02:27;102452.00;;;14.80
15607;BMP180;7865;50.918;4.510;2023-04-03T11:07:38;102440.00;;;14.70
15607;BMP180;7865;50.918;4.510;2023-04-03T11:12:48;102441.00;;;14.70
15607;BMP180;7865;50.918;4.510;2023-04-03T11:17:54;102425.00;;;14.80
15607;BMP180;7865;50.918;4.510;2023-04-03T11:23:15;102425.00;;;15.10
15607;BMP180;7865;50.918;4.510;2023-04-03T11:28:21;102421.00;;;15.10
15607;BMP180;7865;50.918;4.510;2023-04-03T11:44:35;102408.00;;;15.50
15607;BMP180;7865;50.918;4.510;2023-04-03T11:55:01;102392.00;;;15.50
15607;BMP180;7865;50.918;4.510;2023-04-03T12:05:43;102378.00;;;15.10
15607;BMP180;7865;50.918;4.510;2023-04-03T12:16:23;102382.00;;;14.80
15607;BMP180;7865;50.918;4.510;2023-04-03T12:47:55;102351.00;;;15.80
15607;BMP180;7865;50.918;4.510;2023-04-03T12:53:18;102346.00;;;15.50
15607;BMP180;7865;50.918;4.510;2023-04-03T12:58:27;102346.00;;;15.80
15607;BMP180;7865;50.918;4.510;2023-04-03T13:03:30;102336.00;;;16.00
15607;BMP180;7865;50.918;4.510;2023-04-03T13:08:33;102332.00;;;16.20
15607;BMP180;7865;50.918;4.510;2023-04-03T13:13:35;102336.00;;;16.00
15607;BMP180;7865;50.918;4.510;2023-04-03T13:18:38;102332.00;;;16.20
15607;BMP180;7865;50.918;4.510;2023-04-03T13:23:43;102331.00;;;16.40
15607;BMP180;7865;50.918;4.510;2023-04-03T13:28:47;102312.00;;;19.80
15607;BMP180;7865;50.918;4.510;2023-04-03T13:34:02;102308.00;;;20.70
15607;BMP180;7865;50.918;4.510;2023-04-03T13:44:16;102295.00;;;20.20
15607;BMP180;7865;50.918;4.510;2023-04-03T13:49:39;102284.00;;;21.70
15607;BMP180;7865;50.918;4.510;2023-04-03T13:54:41;102277.00;;;22.10
15607;BMP180;7865;50.918;4.510;2023-04-03T13:59:43;102274.00;;;23.10
15607;BMP180;7865;50.918;4.510;2023-04-03T14:04:58;102258.00;;;23.30
15607;BMP180;7865;50.918;4.510;2023-04-03T14:10:03;102250.00;;;23.60
15607;BMP180;7865;50.918;4.510;2023-04-03T14:15:16;102249.00;;;23.60
15607;BMP180;7865;50.918;4.510;2023-04-03T14:20:23;102249.00;;;23.30
15607;BMP180;7865;50.918;4.510;2023-04-03T14:25:25;102239.00;;;23.60
15607;BMP180;7865;50.918;4.510;2023-04-03T14:30:31;102244.00;;;24.20
15607;BMP180;7865;50.918;4.510;2023-04-03T14:35:33;102240.00;;;23.10
15607;BMP180;7865;50.918;4.510;2023-04-03T14:40:35;102246.00;;;22.00
15607;BMP180;7865;50.918;4.510;2023-04-03T14:45:38;102243.00;;;21.60
15607;BMP180;7865;50.918;4.510;2023-04-03T14:50:40;102237.00;;;22.50
15607;BMP180;7865;50.918;4.510;2023-04-03T14:55:55;102221.00;;;21.20
15607;BMP180;7865;50.918;4.510;2023-04-03T15:00:57;102219.00;;;23.30
15607;BMP180;7865;50.918;4.510;2023-04-03T15:05:59;102231.00;;;21.20
15607;BMP180;7865;50.918;4.510;2023-04-03T15:11:01;102221.00;;;21.20
15607;BMP180;7865;50.918;4.510;2023-04-03T15:16:04;102244.00;;;20.60
15607;BMP180;7865;50.918;4.510;2023-04-03T15:21:06;102257.00;;;17.80
15607;BMP180;7865;50.918;4.510;2023-04-03T15:26:08;102236.00;;;16.80
15607;BMP180;7865;50.918;4.510;2023-04-03T15:31:11;102251.00;;;15.00
15607;BMP180;7865;50.918;4.510;2023-04-03T15:36:13;102245.00;;;15.20
15607;BMP180;7865;50.918;4.510;2023-04-03T15:41:34;102239.00;;;15.50
15607;BMP180;7865;50.918;4.510;2023-04-03T15:46:36;102240.00;;;15.10
15607;BMP180;7865;50.918;4.510;2023-04-03T15:51:38;102230.00;;;14.10
15607;BMP180;7865;50.918;4.510;2023-04-03T15:56:40;102238.00;;;12.50
15607;BMP180;7865;50.918;4.510;2023-04-03T16:01:43;102231.00;;;12.10
15607;BMP180;7865;50.918;4.510;2023-04-03T16:06:45;102236.00;;;11.60
15607;BMP180;7865;50.918;4.510;2023-04-03T16:11:47;102237.00;;;11.10
15607;BMP180;7865;50.918;4.510;2023-04-03T16:16:49;102221.00;;;10.80
15607;BMP180;7865;50.918;4.510;2023-04-03T16:21:53;102225.00;;;10.60
15607;BMP180;7865;50.918;4.510;2023-04-03T16:26:55;102232.00;;;10.40
15607;BMP180;7865;50.918;4.510;2023-04-03T16:31:58;102241.00;;;10.30
15607;BMP180;7865;50.918;4.510;2023-04-03T16:37:00;102239.00;;;10.10
15607;BMP180;7865;50.918;4.510;2023-04-03T16:42:02;102248.00;;;10.00
15607;BMP180;7865;50.918;4.510;2023-04-03T16:47:04;102244.00;;;9.90
15607;BMP180;7865;50.918;4.510;2023-04-03T16:52:06;102243.00;;;9.80
15607;BMP180;7865;50.918;4.510;2023-04-03T16:57:08;102241.00;;;9.70
15607;BMP180;7865;50.918;4.510;2023-04-03T17:02:10;102241.00;;;9.70
15607;BMP180;7865;50.918;4.510;2023-04-03T17:07:12;102251.00;;;9.60
15607;BMP180;7865;50.918;4.510;2023-04-03T17:12:14;102248.00;;;9.40
15607;BMP180;7865;50.918;4.510;2023-04-03T17:17:22;102259.00;;;9.30
15607;BMP180;7865;50.918;4.510;2023-04-03T17:22:25;102239.00;;;9.10
15607;BMP180;7865;50.918;4.510;2023-04-03T17:27:27;102254.00;;;9.00
15607;BMP180;7865;50.918;4.510;2023-04-03T17:32:29;102253.00;;;8.80
15607;BMP180;7865;50.918;4.510;2023-04-03T17:37:31;102261.00;;;8.60
15607;BMP180;7865;50.918;4.510;2023-04-03T17:42:33;102256.00;;;8.50
15607;BMP180;7865;50.918;4.510;2023-04-03T17:47:35;102267.00;;;8.40
15607;BMP180;7865;50.918;4.510;2023-04-03T17:52:37;102264.00;;;8.20
15607;BMP180;7865;50.918;4.510;2023-04-03T17:57:39;102270.00;;;8.00
15607;BMP180;7865;50.918;4.510;2023-04-03T18:02:42;102272.00;;;7.90
15607;BMP180;7865;50.918;4.510;2023-04-03T18:07:44;102271.00;;;7.60
15607;BMP180;7865;50.918;4.510;2023-04-03T18:12:46;102274.00;;;7.40
15607;BMP180;7865;50.918;4.510;2023-04-03T18:17:49;102285.00;;;7.30
15607;BMP180;7865;50.918;4.510;2023-04-03T18:22:52;102274.00;;;7.10
15607;BMP180;7865;50.918;4.510;2023-04-03T18:27:54;102275.00;;;7.00
15607;BMP180;7865;50.918;4.510;2023-04-03T18:32:58;102277.00;;;6.90
15607;BMP180;7865;50.918;4.510;2023-04-03T18:38:00;102282.00;;;6.80
15607;BMP180;7865;50.918;4.510;2023-04-03T18:43:02;102273.00;;;6.70
15607;BMP180;7865;50.918;4.510;2023-04-03T18:48:04;102275.00;;;6.50
15607;BMP180;7865;50.918;4.510;2023-04-03T18:53:07;102272.00;;;6.40
15607;BMP180;7865;50.918;4.510;2023-04-03T18:58:09;102278.00;;;6.30
15607;BMP180;7865;50.918;4.510;2023-04-03T19:03:11;102275.00;;;6.30
15607;BMP180;7865;50.918;4.510;2023-04-03T19:08:14;102279.00;;;6.30
15607;BMP180;7865;50.918;4.510;2023-04-03T19:13:16;102284.00;;;6.20
15607;BMP180;7865;50.918;4.510;2023-04-03T19:18:18;102293.00;;;6.10
15607;BMP180;7865;50.918;4.510;2023-04-03T19:23:20;102290.00;;;6.00
15607;BMP180;7865;50.918;4.510;2023-04-03T19:28:23;102297.00;;;5.80
15607;BMP180;7865;50.918;4.510;2023-04-03T19:33:26;102294.00;;;5.60
15607;BMP180;7865;50.918;4.510;2023-04-03T19:38:28;102295.00;;;5.60
15607;BMP180;7865;50.918;4.510;2023-04-03T19:43:30;102297.00;;;5.50
15607;BMP180;7865;50.918;4.510;2023-04-03T19:48:31;102298.00;;;5.40
15607;BMP180;7865;50.918;4.510;2023-04-03T19:53:33;102319.00;;;5.40
15607;BMP180;7865;50.918;4.510;2023-04-03T19:58:35;102316.00;;;5.30
15607;BMP180;7865;50.918;4.510;2023-04-03T20:03:39;102310.00;;;5.10
15607;BMP180;7865;50.918;4.510;2023-04-03T20:08:42;102318.00;;;5.00
15607;BMP180;7865;50.918;4.510;2023-04-03T20:13:48;102313.00;;;4.90
15607;BMP180;7865;50.918;4.510;2023-04-03T20:18:51;102318.00;;;4.90
15607;BMP180;7865;50.918;4.510;2023-04-03T20:23:57;102318.00;;;4.80
15607;BMP180;7865;50.918;4.510;2023-04-03T20:29:00;102317.00;;;4.80
15607;BMP180;7865;50.918;4.510;2023-04-03T20:34:03;102319.00;;;4.80
15607;BMP180;7865;50.918;4.510;2023-04-03T20:39:05;102322.00;;;4.70
15607;BMP180;7865;50.918;4.510;2023-04-03T20:44:07;102323.00;;;4.60
15607;BMP180;7865;50.918;4.510;2023-04-03T20:49:09;102322.00;;;4.60
15607;BMP180;7865;50.918;4.510;2023-04-03T20:54:11;102326.00;;;4.50
15607;BMP180;7865;50.918;4.510;2023-04-03T20:59:13;102327.00;;;4.50
15607;BMP180;7865;50.918;4.510;2023-04-03T21:04:45;102320.00;;;4.30
15607;BMP180;7865;50.918;4.510;2023-04-03T21:20:56;102321.00;;;4.10
15607;BMP180;7865;50.918;4.510;2023-04-03T21:25:59;102312.00;;;4.00
15607;BMP180;7865;50.918;4.510;2023-04-03T21:31:01;102324.00;;;3.90
15607;BMP180;7865;50.918;4.510;2023-04-03T21:36:02;102317.00;;;3.90
15607;BMP180;7865;50.918;4.510;2023-04-03T21:41:04;102322.00;;;3.80
15607;BMP180;7865;50.918;4.510;2023-04-03T21:46:06;102322.00;;;3.80
15607;BMP180;7865;50.918;4.510;2023-04-03T21:51:09;102326.00;;;3.70
15607;BMP180;7865;50.918;4.510;2023-04-03T21:56:11;102323.00;;;3.60
15607;BMP180;7865;50.918;4.510;2023-04-03T22:01:14;102332.00;;;3.60
15607;BMP180;7865;50.918;4.510;2023-04-03T22:06:17;102334.00;;;3.50
15607;BMP180;7865;50.918;4.510;2023-04-03T22:11:19;102316.00;;;3.50
15607;BMP180;7865;50.918;4.510;2023-04-03T22:16:23;102320.00;;;3.40
15607;BMP180;7865;50.918;4.510;2023-04-03T22:21:25;102317.00;;;3.40
15607;BMP180;7865;50.918;4.510;2023-04-03T22:26:28;102312.00;;;3.30
15607;BMP180;7865;50.918;4.510;2023-04-03T22:31:29;102301.00;;;3.20
15607;BMP180;7865;50.918;4.510;2023-04-03T22:36:32;102297.00;;;3.20
15607;BMP180;7865;50.918;4.510;2023-04-03T22:41:34;102286.00;;;3.10
15607;BMP180;7865;50.918;4.510;2023-04-03T22:46:35;102302.00;;;3.00
15607;BMP180;7865;50.918;4.510;2023-04-03T22:51:38;102285.00;;;3.00
15607;BMP180;7865;50.918;4.510;2023-04-03T22:56:39;102290.00;;;2.90
15607;BMP180;7865;50.918;4.510;2023-04-03T23:01:42;102290.00;;;2.90
15607;BMP180;7865;50.918;4.510;2023-04-03T23:06:44;102298.00;;;2.80
15607;BMP180;7865;50.918;4.510;2023-04-03T23:11:46;102304.00;;;2.80
15607;BMP180;7865;50.918;4.510;2023-04-03T23:16:47;102304.00;;;2.70
15607;BMP180;7865;50.918;4.510;2023-04-03T23:21:49;102307.00;;;2.60
15607;BMP180;7865;50.918;4.510;2023-04-03T23:26:51;102311.00;;;2.50
15607;BMP180;7865;50.918;4.510;2023-04-03T23:31:53;102320.00;;;2.40
15607;BMP180;7865;50.918;4.510;2023-04-03T23:36:55;102306.00;;;2.30
15607;BMP180;7865;50.918;4.510;2023-04-03T23:41:57;102309.00;;;2.30
15607;BMP180;7865;50.918;4.510;2023-04-03T23:46:59;102289.00;;;2.20
15607;BMP180;7865;50.918;4.510;2023-04-03T23:52:01;102299.00;;;2.10
15607;BMP180;7865;50.918;4.510;2023-04-03T23:57:03;102291.00;;;2.10
